x

San Francisco - 18nm West Of San Francisco, Ca (46026) Wave Buoy

9:50am - Wed 1st Oct 2014 All times are PDT. -7 hours from GMT.

  • Sig Wave height 7.5ft
  • Swell Direction
  • Peak Period 10s
  • Average Period 7s
  • Wind
    7mph, 9mph gusts
  • Sea Temp 60°f
  • Air Temp 61°f
  • Sea Pressure 1013.4mb
  • San Francisco - 18nm West Of San Francisco, Ca
  • San Francisco - 18nm West Of San Francisco, Ca

More Historic Weather Station data

Upgrade to MSW Pro to gain access to the past 30 days of data for over 8000 Wavebouys and Weather Stations around the globe.

Join Pro

Comparision Forecast

View Surf forecast
   
Wed 10/01 9:50am 7.5ft 10s 7s 7 9 mph 1013.4mb 60f 61f
8:50am 7.5ft 10s 7s 4 7 mph 1013.1mb 60f 61f
7:50am 7ft 8s 7s 2 4 mph 1012.7mb 60f 61f
6:50am 7ft 9s 7s 11 13 mph 1012mb 60f 60f
5:50am 7.5ft 11s 7s 13 18 mph 1011.4mb 60f 60f
4:50am 7.5ft 10s 7s 18 20 mph 1011mb 60f 60f
3:50am 9ft 10s 7s 18 22 mph 1011mb 61f 60f
2:50am 9ft 10s 7s 18 22 mph 1011.2mb 61f 60f
1:50am 8.5ft 11s 7s 20 25 mph 1011.4mb 61f 60f
Tue 09/30 11:50pm 9ft 10s 7s 18 20 mph 1011.3mb 61f 61f
10:50pm 8ft 10s 7s 18 20 mph 1011.4mb 61f 61f
9:50pm 9ft 10s 7s 20 25 mph 1011.1mb 61f 61f
8:50pm 7.5ft 8s 7s 18 22 mph 1011.4mb 61f 61f
7:50pm 7ft 9s 6s 18 22 mph 1011.6mb 61f 62f
6:50pm 7ft 11s 6s 22 29 mph 1011.4mb 61f 62f
5:50pm 7ft 9s 6s 20 25 mph 1011.7mb 61f 62f
4:50pm 6.5ft 7s 6s 18 22 mph 1011.9mb 61f 62f
3:50pm 6ft 8s 6s 16 18 mph 1012.6mb 61f 61f
2:50pm 7ft 8s 6s 13 18 mph 1013.1mb 61f 61f
1:50pm 6ft 8s 6s 16 20 mph 1014mb 61f 61f
12:50pm 7ft 8s 6s 16 18 mph 1014.5mb 61f 60f
11:50am 7ft 8s 6s 18 20 mph 1014.7mb 61f 60f
10:50am 6ft 7s 6s 16 18 mph 1014.8mb 61f 60f
9:50am 5.5ft 12s 6s 16 22 mph 1015mb 61f 60f
8:50am 5.5ft 12s 6s 16 20 mph 1015mb 61f 60f
7:50am 6ft 7s 6s 18 22 mph 1014.7mb 61f 59f
6:50am 6ft 8s 6s 20 25 mph 1014.6mb 61f 60f
5:50am 6ft 7s 5s 22 27 mph 1014.7mb 61f 59f
4:50am 6ft 13s 5s 25 29 mph 1014.6mb 61f 59f
3:50am 6ft 7s 5s 25 29 mph 1014.6mb 61f 60f
2:50am 6ft 7s 5s 22 27 mph 1015.2mb 61f 61f
1:50am 6ft 7s 5s 22 27 mph 1014.9mb 61f 61f
12:50am 7ft 7s 5s 25 29 mph 1015.2mb 61f 61f
Mon 09/29 11:50pm 6ft 7s 5s 22 27 mph 1015.8mb 61f 61f
10:50pm 6.5ft 7s 5s 20 25 mph 1015.7mb 61f 62f
9:50pm 6.5ft 6s 6s 20 25 mph 1015.7mb 61f 61f
8:50pm 4.5ft 6s 5s 20 25 mph 1015.8mb 61f 62f
7:50pm 4ft 6s 5s 16 18 mph 1015.7mb 61f 62f
6:50pm 4ft 6s 5s 13 18 mph 1015.7mb 62f 62f
5:50pm 3.5ft 7s 5s 13 16 mph 1015.9mb 62f 62f
4:50pm 4ft 6s 5s 16 18 mph 1016mb 62f 62f
3:50pm 4ft 7s 5s 16 18 mph 1016.4mb 62f 61f
2:50pm 3.5ft 7s 5s 11 16 mph 1016.8mb 62f 60f
1:50pm 3.5ft 7s 5s 9 11 mph 1017.2mb 62f 60f
12:50pm 3.5ft 8s 5s 11
mph
1017.7mb 61f 60f
11:50am 3ft 7s 5s 9 11 mph 1017.8mb 61f 61f
10:50am 3.5ft 8s 6s 9 11 mph 1017.8mb 61f 61f
9:50am 3.5ft 8s 6s 9 13 mph 1017.5mb 62f 61f
8:50am 3.5ft 8s 6s 9 11 mph 1017.2mb 62f 61f
7:50am 3.5ft 8s 6s 11 13 mph 1016.7mb 62f 60f
6:50am 3.5ft 8s 6s 7 11 mph 1016.1mb 62f 59f
5:50am 4ft 8s 6s 7 9 mph 1015.6mb 61f 59f
4:50am 4ft 8s 6s 9 13 mph 1015.4mb 61f 58f
3:50am 4ft 9s 6s 11 13 mph 1015.4mb 61f 59f
2:50am 4ft 8s 6s 7 9 mph 1015.3mb 61f 59f
1:50am 4ft 8s 6s 7 11 mph 1015.3mb 61f 60f
12:50am 4ft 8s 6s 9 11 mph 1015.5mb 61f 60f
Sun 09/28 11:50pm 4ft 8s 6s 9 13 mph 1015.4mb 62f 60f
10:50pm 4ft 8s 6s 9
mph
1015.2mb 62f 61f
9:50pm 4.5ft 8s 6s 9 11 mph 1014.8mb 62f 61f
8:50pm 4.5ft 9s 7s 7 9 mph 1014.7mb 62f 62f
7:50pm 5ft 8s 6s 7 11 mph 1014.3mb 62f 62f
6:50pm 5ft 8s 6s 9 11 mph 1013.9mb 62f 62f
5:50pm 4.5ft 8s 6s 7 9 mph 1013.8mb 63f 62f
4:50pm 4.5ft 8s 6s 4 9 mph 1013.8mb 62f 62f
3:50pm 5.5ft 9s 7s 9 11 mph 1013.4mb 63f 62f
2:50pm 5.5ft 10s 7s 4 7 mph 1013.3mb 63f 62f
1:50pm 5ft 9s 7s 4 7 mph 1013.3mb 63f 62f
12:50pm 5ft 9s 7s 4 7 mph 1013.3mb 62f 61f
11:50am 6ft 9s 7s 7 9 mph 1013.1mb 62f 60f
10:50am 6.5ft 8s 7s 4 7 mph 1013.2mb 62f 60f
9:50am 6.5ft 8s 7s  -  2 mph 1012.9mb 62f 60f
8:50am 6.5ft 9s 7s 2 4 mph 1012.2mb 62f 60f
7:50am 7ft 8s 7s 4 7 mph 1011.7mb 62f 59f
6:50am 7.5ft 9s 7s 7 9 mph 1011.1mb 61f 59f
5:50am 7ft 8s 7s 4 7 mph 1010.4mb 61f 60f
4:50am 7.5ft 8s 7s  -  2 mph 1010.4mb 62f 60f
3:50am 7.5ft 10s 7s 9 11 mph 1010.4mb 62f 60f
2:50am 8ft 10s 7s 7 11 mph 1010.2mb 62f 61f
1:50am 8.5ft 10s 7s 13 18 mph 1010.5mb 61f 61f
12:50am 9ft 9s 7s 18 20 mph 1010.1mb 61f 61f
Sat 09/27 11:50pm 9ft 11s 7s 20 25 mph 1010.4mb 61f 62f
10:50pm 10ft 9s 7s 20 25 mph 1010.9mb 61f 62f
9:50pm 9ft 9s 6s 25 29 mph 1010.8mb 62f 62f
8:50pm 9.5ft 8s 7s 22 29 mph 1010.8mb 62f 62f
6:50pm 8.5ft 9s 6s 20 25 mph 1011.1mb 63f 62f